sensor_id;sensor_type;location;lat;lon;timestamp;pressure;altitude;pressure_sealevel;temperature;humidity
25084;BME280;13075;55.682;37.564;2022-11-25T00:01:04;100259.28;;;-3.62;100.00
25084;BME280;13075;55.682;37.564;2022-11-25T00:03:30;100254.41;;;-3.68;100.00
25084;BME280;13075;55.682;37.564;2022-11-25T00:05:56;100254.22;;;-3.65;100.00
25084;BME280;13075;55.682;37.564;2022-11-25T00:08:21;100250.50;;;-3.75;100.00
25084;BME280;13075;55.682;37.564;2022-11-25T00:10:47;100245.72;;;-3.69;100.00
25084;BME280;13075;55.682;37.564;2022-11-25T00:13:12;100262.34;;;-3.56;100.00
25084;BME280;13075;55.682;37.564;2022-11-25T00:15:38;100261.31;;;-3.53;100.00
25084;BME280;13075;55.682;37.564;2022-11-25T00:18:03;100255.34;;;-3.55;100.00
25084;BME280;13075;55.682;37.564;2022-11-25T00:20:29;100261.53;;;-3.56;100.00
25084;BME280;13075;55.682;37.564;2022-11-25T00:22:55;100256.38;;;-3.58;100.00
25084;BME280;13075;55.682;37.564;2022-11-25T00:25:20;100258.44;;;-3.63;100.00
25084;BME280;13075;55.682;37.564;2022-11-25T00:27:46;100264.63;;;-3.64;100.00
25084;BME280;13075;55.682;37.564;2022-11-25T00:30:11;100273.94;;;-3.60;100.00
25084;BME280;13075;55.682;37.564;2022-11-25T00:32:37;100276.06;;;-3.81;100.00
25084;BME280;13075;55.682;37.564;2022-11-25T00:35:03;100274.31;;;-3.80;100.00
25084;BME280;13075;55.682;37.564;2022-11-25T00:37:31;100279.25;;;-3.75;100.00
25084;BME280;13075;55.682;37.564;2022-11-25T00:39:56;100271.13;;;-3.71;100.00
25084;BME280;13075;55.682;37.564;2022-11-25T00:42:22;100273.09;;;-3.60;100.00
25084;BME280;13075;55.682;37.564;2022-11-25T00:45:06;100276.44;;;-3.58;100.00
25084;BME280;13075;55.682;37.564;2022-11-25T00:47:32;100273.28;;;-3.49;100.00
25084;BME280;13075;55.682;37.564;2022-11-25T00:49:58;100264.50;;;-3.62;100.00
25084;BME280;13075;55.682;37.564;2022-11-25T00:52:26;100268.16;;;-3.65;100.00
25084;BME280;13075;55.682;37.564;2022-11-25T00:54:52;100268.41;;;-3.55;100.00
25084;BME280;13075;55.682;37.564;2022-11-25T00:57:20;100271.88;;;-3.55;100.00
25084;BME280;13075;55.682;37.564;2022-11-25T00:59:47;100279.16;;;-3.60;100.00
25084;BME280;13075;55.682;37.564;2022-11-25T01:02:16;100274.69;;;-3.58;100.00
25084;BME280;13075;55.682;37.564;2022-11-25T01:04:43;100278.72;;;-3.38;100.00
25084;BME280;13075;55.682;37.564;2022-11-25T01:07:09;100268.13;;;-3.51;100.00
25084;BME280;13075;55.682;37.564;2022-11-25T01:09:36;100273.56;;;-3.54;100.00
25084;BME280;13075;55.682;37.564;2022-11-25T01:12:02;100277.47;;;-3.61;100.00
25084;BME280;13075;55.682;37.564;2022-11-25T01:14:29;100281.03;;;-3.48;100.00
25084;BME280;13075;55.682;37.564;2022-11-25T01:16:55;100277.78;;;-3.51;100.00
25084;BME280;13075;55.682;37.564;2022-11-25T01:19:20;100283.72;;;-3.35;100.00
25084;BME280;13075;55.682;37.564;2022-11-25T01:21:46;100285.53;;;-3.36;100.00
25084;BME280;13075;55.682;37.564;2022-11-25T01:24:13;100285.50;;;-3.50;100.00
25084;BME280;13075;55.682;37.564;2022-11-25T01:26:39;100295.50;;;-3.42;100.00
25084;BME280;13075;55.682;37.564;2022-11-25T01:29:09;100293.63;;;-3.40;100.00
25084;BME280;13075;55.682;37.564;2022-11-25T01:31:36;100298.84;;;-3.40;100.00
25084;BME280;13075;55.682;37.564;2022-11-25T01:34:07;100284.69;;;-3.64;100.00
25084;BME280;13075;55.682;37.564;2022-11-25T01:36:35;100297.19;;;-3.55;100.00
25084;BME280;13075;55.682;37.564;2022-11-25T01:39:01;100300.06;;;-3.46;100.00
25084;BME280;13075;55.682;37.564;2022-11-25T01:41:30;100292.50;;;-3.50;100.00
25084;BME280;13075;55.682;37.564;2022-11-25T01:44:14;100298.41;;;-3.47;100.00
25084;BME280;13075;55.682;37.564;2022-11-25T01:49:29;100298.13;;;-3.42;100.00
25084;BME280;13075;55.682;37.564;2022-11-25T01:54:27;100308.94;;;-3.62;100.00
25084;BME280;13075;55.682;37.564;2022-11-25T01:57:03;100302.13;;;-3.51;100.00
25084;BME280;13075;55.682;37.564;2022-11-25T01:59:31;100303.72;;;-3.62;100.00
25084;BME280;13075;55.682;37.564;2022-11-25T02:01:59;100300.38;;;-3.64;100.00
25084;BME280;13075;55.682;37.564;2022-11-25T02:04:28;100302.88;;;-3.63;100.00
25084;BME280;13075;55.682;37.564;2022-11-25T02:07:00;100304.53;;;-3.76;100.00
25084;BME280;13075;55.682;37.564;2022-11-25T02:09:29;100303.69;;;-3.77;100.00
25084;BME280;13075;55.682;37.564;2022-11-25T02:11:55;100309.47;;;-3.71;100.00
25084;BME280;13075;55.682;37.564;2022-11-25T02:14:22;100308.22;;;-3.64;100.00
25084;BME280;13075;55.682;37.564;2022-11-25T02:16:50;100304.81;;;-3.66;100.00
25084;BME280;13075;55.682;37.564;2022-11-25T02:19:35;100300.81;;;-3.72;100.00
25084;BME280;13075;55.682;37.564;2022-11-25T02:22:10;100307.72;;;-3.71;100.00
25084;BME280;13075;55.682;37.564;2022-11-25T02:24:46;100294.81;;;-3.74;100.00
25084;BME280;13075;55.682;37.564;2022-11-25T02:27:16;100299.13;;;-3.73;100.00
25084;BME280;13075;55.682;37.564;2022-11-25T02:29:42;100289.88;;;-3.93;100.00
25084;BME280;13075;55.682;37.564;2022-11-25T02:32:09;100309.13;;;-3.80;100.00
25084;BME280;13075;55.682;37.564;2022-11-25T02:34:34;100299.81;;;-3.99;100.00
25084;BME280;13075;55.682;37.564;2022-11-25T02:37:00;100300.84;;;-4.02;100.00
25084;BME280;13075;55.682;37.564;2022-11-25T02:39:26;100296.94;;;-3.95;100.00
25084;BME280;13075;55.682;37.564;2022-11-25T02:41:56;100309.31;;;-3.68;100.00
25084;BME280;13075;55.682;37.564;2022-11-25T02:44:22;100317.06;;;-3.67;100.00
25084;BME280;13075;55.682;37.564;2022-11-25T02:46:49;100319.13;;;-3.58;100.00
25084;BME280;13075;55.682;37.564;2022-11-25T02:49:17;100317.06;;;-3.53;100.00
25084;BME280;13075;55.682;37.564;2022-11-25T02:51:44;100319.88;;;-3.56;100.00
25084;BME280;13075;55.682;37.564;2022-11-25T02:54:11;100311.19;;;-3.70;100.00
25084;BME280;13075;55.682;37.564;2022-11-25T02:56:37;100319.88;;;-3.70;100.00
25084;BME280;13075;55.682;37.564;2022-11-25T02:59:05;100333.03;;;-3.57;100.00
25084;BME280;13075;55.682;37.564;2022-11-25T03:01:31;100333.44;;;-3.49;100.00
25084;BME280;13075;55.682;37.564;2022-11-25T03:03:57;100351.84;;;-3.37;100.00
25084;BME280;13075;55.682;37.564;2022-11-25T03:06:26;100339.69;;;-3.52;100.00
25084;BME280;13075;55.682;37.564;2022-11-25T03:08:53;100341.09;;;-3.46;100.00
25084;BME280;13075;55.682;37.564;2022-11-25T03:11:18;100334.44;;;-3.38;100.00
25084;BME280;13075;55.682;37.564;2022-11-25T03:13:44;100345.38;;;-3.45;100.00
25084;BME280;13075;55.682;37.564;2022-11-25T03:16:10;100343.22;;;-3.67;100.00
25084;BME280;13075;55.682;37.564;2022-11-25T03:18:36;100344.63;;;-3.61;100.00
25084;BME280;13075;55.682;37.564;2022-11-25T03:21:02;100352.28;;;-3.58;100.00
25084;BME280;13075;55.682;37.564;2022-11-25T03:23:28;100352.66;;;-3.64;100.00
25084;BME280;13075;55.682;37.564;2022-11-25T03:25:55;100356.47;;;-3.56;100.00
25084;BME280;13075;55.682;37.564;2022-11-25T03:28:21;100371.06;;;-3.52;100.00
25084;BME280;13075;55.682;37.564;2022-11-25T03:30:47;100367.59;;;-3.52;100.00
25084;BME280;13075;55.682;37.564;2022-11-25T03:33:13;100363.28;;;-3.53;100.00
25084;BME280;13075;55.682;37.564;2022-11-25T03:35:39;100359.41;;;-3.46;100.00
25084;BME280;13075;55.682;37.564;2022-11-25T03:38:05;100364.47;;;-3.43;100.00
25084;BME280;13075;55.682;37.564;2022-11-25T03:40:33;100371.69;;;-3.62;100.00
25084;BME280;13075;55.682;37.564;2022-11-25T03:42:59;100378.00;;;-3.81;100.00
25084;BME280;13075;55.682;37.564;2022-11-25T03:45:24;100379.53;;;-3.62;100.00
25084;BME280;13075;55.682;37.564;2022-11-25T03:47:52;100380.28;;;-3.74;100.00
25084;BME280;13075;55.682;37.564;2022-11-25T03:50:18;100373.50;;;-3.49;100.00
25084;BME280;13075;55.682;37.564;2022-11-25T03:52:45;100385.47;;;-3.45;100.00
25084;BME280;13075;55.682;37.564;2022-11-25T03:55:11;100394.06;;;-3.29;100.00
25084;BME280;13075;55.682;37.564;2022-11-25T03:57:39;100389.75;;;-3.44;100.00
25084;BME280;13075;55.682;37.564;2022-11-25T04:00:07;100391.47;;;-3.29;100.00
25084;BME280;13075;55.682;37.564;2022-11-25T04:02:43;100385.66;;;-3.20;100.00
25084;BME280;13075;55.682;37.564;2022-11-25T04:05:09;100386.63;;;-3.21;100.00
25084;BME280;13075;55.682;37.564;2022-11-25T04:07:34;100382.13;;;-3.19;100.00
25084;BME280;13075;55.682;37.564;2022-11-25T04:10:01;100388.19;;;-3.18;100.00
25084;BME280;13075;55.682;37.564;2022-11-25T04:12:30;100387.34;;;-3.33;100.00
25084;BME280;13075;55.682;37.564;2022-11-25T04:15:21;100400.84;;;-3.54;100.00
25084;BME280;13075;55.682;37.564;2022-11-25T04:17:52;100396.38;;;-3.52;100.00
25084;BME280;13075;55.682;37.564;2022-11-25T04:20:18;100399.84;;;-3.38;100.00
25084;BME280;13075;55.682;37.564;2022-11-25T04:22:50;100401.25;;;-3.32;100.00
25084;BME280;13075;55.682;37.564;2022-11-25T04:25:17;100400.06;;;-3.27;100.00
25084;BME280;13075;55.682;37.564;2022-11-25T04:27:43;100412.84;;;-3.36;100.00
25084;BME280;13075;55.682;37.564;2022-11-25T04:30:10;100399.44;;;-3.46;100.00
25084;BME280;13075;55.682;37.564;2022-11-25T04:32:38;100406.38;;;-3.45;100.00
25084;BME280;13075;55.682;37.564;2022-11-25T04:35:06;100409.22;;;-3.34;100.00
25084;BME280;13075;55.682;37.564;2022-11-25T04:37:32;100404.69;;;-3.46;100.00
25084;BME280;13075;55.682;37.564;2022-11-25T04:39:58;100410.06;;;-3.33;100.00
25084;BME280;13075;55.682;37.564;2022-11-25T04:42:24;100405.53;;;-3.45;100.00
25084;BME280;13075;55.682;37.564;2022-11-25T04:44:58;100405.53;;;-3.45;100.00
25084;BME280;13075;55.682;37.564;2022-11-25T04:47:25;100403.69;;;-3.43;100.00
25084;BME280;13075;55.682;37.564;2022-11-25T04:49:50;100400.84;;;-3.54;100.00
25084;BME280;13075;55.682;37.564;2022-11-25T04:52:17;100401.72;;;-3.40;100.00
25084;BME280;13075;55.682;37.564;2022-11-25T04:54:43;100413.66;;;-3.50;100.00
25084;BME280;13075;55.682;37.564;2022-11-25T04:57:12;100409.78;;;-3.58;100.00
25084;BME280;13075;55.682;37.564;2022-11-25T04:59:40;100420.47;;;-3.61;100.00
25084;BME280;13075;55.682;37.564;2022-11-25T05:02:19;100425.25;;;-3.40;100.00
25084;BME280;13075;55.682;37.564;2022-11-25T05:04:59;100411.03;;;-3.50;100.00
25084;BME280;13075;55.682;37.564;2022-11-25T05:07:26;100422.88;;;-3.58;100.00
25084;BME280;13075;55.682;37.564;2022-11-25T05:09:55;100411.97;;;-3.51;100.00
25084;BME280;13075;55.682;37.564;2022-11-25T05:12:47;100408.13;;;-3.59;100.00
25084;BME280;13075;55.682;37.564;2022-11-25T05:15:19;100412.25;;;-3.55;100.00
25084;BME280;13075;55.682;37.564;2022-11-25T05:17:46;100414.69;;;-3.52;100.00
25084;BME280;13075;55.682;37.564;2022-11-25T05:20:14;100422.56;;;-3.38;100.00
25084;BME280;13075;55.682;37.564;2022-11-25T05:22:39;100416.44;;;-3.53;100.00
25084;BME280;13075;55.682;37.564;2022-11-25T05:25:08;100408.00;;;-3.28;100.00
25084;BME280;13075;55.682;37.564;2022-11-25T05:27:39;100416.66;;;-3.28;100.00
25084;BME280;13075;55.682;37.564;2022-11-25T05:30:08;100420.03;;;-3.40;100.00
25084;BME280;13075;55.682;37.564;2022-11-25T05:32:34;100422.47;;;-3.37;100.00
25084;BME280;13075;55.682;37.564;2022-11-25T05:35:03;100418.09;;;-3.22;100.00
25084;BME280;13075;55.682;37.564;2022-11-25T05:37:29;100432.53;;;-3.45;100.00
25084;BME280;13075;55.682;37.564;2022-11-25T05:40:01;100431.72;;;-3.31;100.00
25084;BME280;13075;55.682;37.564;2022-11-25T05:42:28;100430.88;;;-3.32;100.00
25084;BME280;13075;55.682;37.564;2022-11-25T05:44:56;100438.16;;;-3.37;100.00
25084;BME280;13075;55.682;37.564;2022-11-25T05:47:22;100441.78;;;-3.39;100.00
25084;BME280;13075;55.682;37.564;2022-11-25T05:49:48;100439.81;;;-3.50;100.00
25084;BME280;13075;55.682;37.564;2022-11-25T05:52:14;100446.56;;;-3.32;100.00
25084;BME280;13075;55.682;37.564;2022-11-25T05:54:48;100445.16;;;-3.37;100.00
25084;BME280;13075;55.682;37.564;2022-11-25T05:57:15;100445.09;;;-3.36;100.00
25084;BME280;13075;55.682;37.564;2022-11-25T05:59:45;100434.63;;;-3.22;100.00
25084;BME280;13075;55.682;37.564;2022-11-25T06:02:22;100438.84;;;-3.19;100.00
25084;BME280;13075;55.682;37.564;2022-11-25T06:04:49;100441.13;;;-3.43;100.00
25084;BME280;13075;55.682;37.564;2022-11-25T06:07:15;100456.81;;;-3.43;100.00
25084;BME280;13075;55.682;37.564;2022-11-25T06:09:41;100453.28;;;-3.42;100.00
25084;BME280;13075;55.682;37.564;2022-11-25T06:12:06;100457.06;;;-3.61;100.00
25084;BME280;13075;55.682;37.564;2022-11-25T06:14:37;100451.28;;;-3.52;100.00
25084;BME280;13075;55.682;37.564;2022-11-25T06:17:03;100457.78;;;-3.30;100.00
25084;BME280;13075;55.682;37.564;2022-11-25T06:19:33;100458.16;;;-3.36;100.00
25084;BME280;13075;55.682;37.564;2022-11-25T06:21:59;100469.44;;;-3.35;100.00
25084;BME280;13075;55.682;37.564;2022-11-25T06:24:26;100473.53;;;-3.45;100.00
25084;BME280;13075;55.682;37.564;2022-11-25T06:26:57;100482.09;;;-3.57;100.00
25084;BME280;13075;55.682;37.564;2022-11-25T06:29:24;100478.06;;;-3.33;100.00
25084;BME280;13075;55.682;37.564;2022-11-25T06:31:50;100475.16;;;-3.58;100.00
25084;BME280;13075;55.682;37.564;2022-11-25T06:34:30;100485.63;;;-3.58;100.00
25084;BME280;13075;55.682;37.564;2022-11-25T06:36:56;100484.94;;;-3.46;100.00
25084;BME280;13075;55.682;37.564;2022-11-25T06:39:22;100490.38;;;-3.35;100.00
25084;BME280;13075;55.682;37.564;2022-11-25T06:41:47;100481.31;;;-3.44;100.00
25084;BME280;13075;55.682;37.564;2022-11-25T06:44:13;100462.03;;;-3.43;100.00
25084;BME280;13075;55.682;37.564;2022-11-25T06:46:39;100479.03;;;-3.50;100.00
25084;BME280;13075;55.682;37.564;2022-11-25T06:49:05;100488.81;;;-3.53;100.00
25084;BME280;13075;55.682;37.564;2022-11-25T06:51:31;100485.69;;;-3.44;100.00
25084;BME280;13075;55.682;37.564;2022-11-25T06:53:57;100486.25;;;-3.39;100.00
25084;BME280;13075;55.682;37.564;2022-11-25T06:56:25;100489.44;;;-3.34;100.00
25084;BME280;13075;55.682;37.564;2022-11-25T06:58:51;100487.31;;;-3.28;100.00
25084;BME280;13075;55.682;37.564;2022-11-25T07:01:27;100485.38;;;-3.24;100.00
25084;BME280;13075;55.682;37.564;2022-11-25T07:03:59;100493.00;;;-3.35;100.00
25084;BME280;13075;55.682;37.564;2022-11-25T07:06:25;100494.41;;;-3.30;100.00
25084;BME280;13075;55.682;37.564;2022-11-25T07:08:51;100501.59;;;-3.33;100.00
25084;BME280;13075;55.682;37.564;2022-11-25T07:11:28;100500.78;;;-3.20;100.00
25084;BME280;13075;55.682;37.564;2022-11-25T07:13:57;100501.34;;;-3.29;100.00
25084;BME280;13075;55.682;37.564;2022-11-25T07:16:24;100507.50;;;-3.30;100.00
25084;BME280;13075;55.682;37.564;2022-11-25T07:18:49;100502.81;;;-3.25;100.00
25084;BME280;13075;55.682;37.564;2022-11-25T07:21:21;100513.63;;;-3.15;100.00
25084;BME280;13075;55.682;37.564;2022-11-25T07:23:48;100510.94;;;-3.29;100.00
25084;BME280;13075;55.682;37.564;2022-11-25T07:26:23;100510.34;;;-3.04;100.00
25084;BME280;13075;55.682;37.564;2022-11-25T07:28:50;100502.31;;;-3.16;100.00
25084;BME280;13075;55.682;37.564;2022-11-25T07:31:20;100511.69;;;-2.97;100.00
25084;BME280;13075;55.682;37.564;2022-11-25T07:33:47;100519.38;;;-2.94;100.00
25084;BME280;13075;55.682;37.564;2022-11-25T07:36:13;100522.63;;;-2.91;100.00
25084;BME280;13075;55.682;37.564;2022-11-25T07:38:40;100517.97;;;-2.86;100.00
25084;BME280;13075;55.682;37.564;2022-11-25T07:41:10;100511.69;;;-2.83;100.00
25084;BME280;13075;55.682;37.564;2022-11-25T07:43:37;100501.31;;;-2.85;100.00
25084;BME280;13075;55.682;37.564;2022-11-25T07:46:12;100516.53;;;-2.91;100.00
25084;BME280;13075;55.682;37.564;2022-11-25T07:48:39;100519.31;;;-3.08;100.00
25084;BME280;13075;55.682;37.564;2022-11-25T07:51:16;100524.50;;;-2.93;100.00
25084;BME280;13075;55.682;37.564;2022-11-25T07:53:42;100521.94;;;-3.08;100.00
25084;BME280;13075;55.682;37.564;2022-11-25T07:56:08;100525.22;;;-3.05;100.00
25084;BME280;13075;55.682;37.564;2022-11-25T07:58:33;100525.69;;;-2.98;100.00
25084;BME280;13075;55.682;37.564;2022-11-25T08:01:06;100524.22;;;-2.88;100.00
25084;BME280;13075;55.682;37.564;2022-11-25T08:03:34;100525.91;;;-2.87;100.00
25084;BME280;13075;55.682;37.564;2022-11-25T08:06:05;100539.69;;;-3.13;100.00
25084;BME280;13075;55.682;37.564;2022-11-25T08:08:31;100536.84;;;-3.25;100.00
25084;BME280;13075;55.682;37.564;2022-11-25T08:10:57;100535.78;;;-3.06;100.00
25084;BME280;13075;55.682;37.564;2022-11-25T08:13:23;100543.78;;;-3.09;100.00
25084;BME280;13075;55.682;37.564;2022-11-25T08:15:49;100543.63;;;-3.06;100.00
25084;BME280;13075;55.682;37.564;2022-11-25T08:18:14;100549.44;;;-3.01;100.00
25084;BME280;13075;55.682;37.564;2022-11-25T08:20:40;100536.28;;;-3.00;100.00
25084;BME280;13075;55.682;37.564;2022-11-25T08:23:06;100546.69;;;-2.84;100.00
25084;BME280;13075;55.682;37.564;2022-11-25T08:25:32;100547.59;;;-2.99;100.00
25084;BME280;13075;55.682;37.564;2022-11-25T08:27:58;100541.22;;;-2.95;100.00
25084;BME280;13075;55.682;37.564;2022-11-25T08:30:24;100544.69;;;-2.95;100.00
25084;BME280;13075;55.682;37.564;2022-11-25T08:32:50;100541.69;;;-2.89;100.00
25084;BME280;13075;55.682;37.564;2022-11-25T08:35:17;100545.78;;;-2.99;100.00
25084;BME280;13075;55.682;37.564;2022-11-25T08:37:43;100539.75;;;-2.99;100.00
25084;BME280;13075;55.682;37.564;2022-11-25T08:40:09;100547.09;;;-3.06;100.00
25084;BME280;13075;55.682;37.564;2022-11-25T08:42:36;100545.22;;;-3.04;100.00
25084;BME280;13075;55.682;37.564;2022-11-25T08:45:03;100551.28;;;-3.18;100.00
25084;BME280;13075;55.682;37.564;2022-11-25T08:47:29;100546.34;;;-3.08;100.00
25084;BME280;13075;55.682;37.564;2022-11-25T08:49:54;100549.03;;;-3.09;100.00
25084;BME280;13075;55.682;37.564;2022-11-25T08:52:21;100556.31;;;-3.15;100.00
25084;BME280;13075;55.682;37.564;2022-11-25T08:54:46;100545.38;;;-3.07;100.00
25084;BME280;13075;55.682;37.564;2022-11-25T08:57:12;100549.25;;;-2.98;100.00
25084;BME280;13075;55.682;37.564;2022-11-25T08:59:38;100545.53;;;-2.94;100.00
25084;BME280;13075;55.682;37.564;2022-11-25T09:02:05;100547.25;;;-2.79;100.00
25084;BME280;13075;55.682;37.564;2022-11-25T09:04:31;100549.19;;;-2.97;100.00
25084;BME280;13075;55.682;37.564;2022-11-25T09:06:57;100550.28;;;-3.01;100.00
25084;BME280;13075;55.682;37.564;2022-11-25T09:09:22;100550.81;;;-3.10;100.00
25084;BME280;13075;55.682;37.564;2022-11-25T09:11:48;100549.66;;;-2.90;100.00
25084;BME280;13075;55.682;37.564;2022-11-25T09:14:13;100554.72;;;-2.87;100.00
25084;BME280;13075;55.682;37.564;2022-11-25T09:16:39;100549.69;;;-2.76;100.00
25084;BME280;13075;55.682;37.564;2022-11-25T09:19:05;100556.22;;;-2.55;100.00
25084;BME280;13075;55.682;37.564;2022-11-25T09:21:31;100556.06;;;-2.66;100.00
25084;BME280;13075;55.682;37.564;2022-11-25T09:23:57;100550.22;;;-2.85;100.00
25084;BME280;13075;55.682;37.564;2022-11-25T09:26:31;100549.75;;;-2.78;100.00
25084;BME280;13075;55.682;37.564;2022-11-25T09:29:02;100547.19;;;-2.64;100.00
25084;BME280;13075;55.682;37.564;2022-11-25T09:31:28;100552.03;;;-2.58;100.00
25084;BME280;13075;55.682;37.564;2022-11-25T09:33:54;100546.31;;;-2.50;100.00
25084;BME280;13075;55.682;37.564;2022-11-25T09:36:20;100540.34;;;-2.52;100.00
25084;BME280;13075;55.682;37.564;2022-11-25T09:38:48;100535.84;;;-2.64;100.00
25084;BME280;13075;55.682;37.564;2022-11-25T09:44:50;100528.94;;;-2.51;100.00
25084;BME280;13075;55.682;37.564;2022-11-25T09:48:16;100535.13;;;-2.38;100.00
25084;BME280;13075;55.682;37.564;2022-11-25T09:51:30;100528.44;;;-2.29;100.00
25084;BME280;13075;55.682;37.564;2022-11-25T09:53:51;100537.53;;;-2.63;100.00
25084;BME280;13075;55.682;37.564;2022-11-25T09:58:55;100538.94;;;-2.58;100.00
25084;BME280;13075;55.682;37.564;2022-11-25T10:01:24;100549.59;;;-2.75;100.00
25084;BME280;13075;55.682;37.564;2022-11-25T10:04:01;100548.00;;;-2.77;100.00
25084;BME280;13075;55.682;37.564;2022-11-25T10:06:35;100549.59;;;-2.75;100.00
25084;BME280;13075;55.682;37.564;2022-11-25T10:09:14;100554.44;;;-2.83;100.00
25084;BME280;13075;55.682;37.564;2022-11-25T10:14:30;100557.97;;;-2.98;100.00
25084;BME280;13075;55.682;37.564;2022-11-25T10:19:58;100555.50;;;-3.15;100.00
25084;BME280;13075;55.682;37.564;2022-11-25T10:22:34;100564.53;;;-3.21;100.00
25084;BME280;13075;55.682;37.564;2022-11-25T10:25:05;100563.59;;;-2.90;100.00
25084;BME280;13075;55.682;37.564;2022-11-25T10:28:02;100570.50;;;-2.89;100.00
25084;BME280;13075;55.682;37.564;2022-11-25T10:31:20;100567.97;;;-2.90;100.00
25084;BME280;13075;55.682;37.564;2022-11-25T10:33:23;100575.94;;;-2.92;100.00
25084;BME280;13075;55.682;37.564;2022-11-25T10:38:31;100589.88;;;-3.07;100.00
25084;BME280;13075;55.682;37.564;2022-11-25T10:41:01;100590.41;;;-2.86;100.00
25084;BME280;13075;55.682;37.564;2022-11-25T10:43:27;100587.38;;;-2.79;100.00
25084;BME280;13075;55.682;37.564;2022-11-25T10:46:46;100585.03;;;-2.55;100.00
25084;BME280;13075;55.682;37.564;2022-11-25T10:49:29;100585.41;;;-2.75;100.00
25084;BME280;13075;55.682;37.564;2022-11-25T10:51:55;100599.50;;;-2.48;100.00
25084;BME280;13075;55.682;37.564;2022-11-25T10:54:24;100602.94;;;-2.47;100.00
25084;BME280;13075;55.682;37.564;2022-11-25T10:56:54;100602.56;;;-2.56;100.00
25084;BME280;13075;55.682;37.564;2022-11-25T11:01:51;100594.97;;;-2.60;100.00
25084;BME280;13075;55.682;37.564;2022-11-25T11:04:17;100601.41;;;-2.66;100.00
25084;BME280;13075;55.682;37.564;2022-11-25T11:06:46;100602.63;;;-2.57;100.00
25084;BME280;13075;55.682;37.564;2022-11-25T11:11:56;100598.59;;;-2.63;100.00
25084;BME280;13075;55.682;37.564;2022-11-25T11:14:21;100594.06;;;-2.89;100.00
25084;BME280;13075;55.682;37.564;2022-11-25T11:16:53;100595.03;;;-2.76;100.00
25084;BME280;13075;55.682;37.564;2022-11-25T11:19:28;100603.03;;;-2.93;100.00
25084;BME280;13075;55.682;37.564;2022-11-25T11:21:55;100604.84;;;-3.09;100.00
25084;BME280;13075;55.682;37.564;2022-11-25T11:24:30;100598.69;;;-3.08;100.00
25084;BME280;13075;55.682;37.564;2022-11-25T11:27:20;100596.44;;;-2.84;100.00
25084;BME280;13075;55.682;37.564;2022-11-25T11:29:47;100600.63;;;-3.11;100.00
25084;BME280;13075;55.682;37.564;2022-11-25T11:32:24;100618.88;;;-3.10;100.00
25084;BME280;13075;55.682;37.564;2022-11-25T11:34:58;100605.16;;;-2.99;100.00
25084;BME280;13075;55.682;37.564;2022-11-25T11:37:41;100621.97;;;-3.03;100.00
25084;BME280;13075;55.682;37.564;2022-11-25T11:48:39;100621.97;;;-3.03;100.00
25084;BME280;13075;55.682;37.564;2022-11-25T11:53:49;100625.75;;;-2.93;100.00
25084;BME280;13075;55.682;37.564;2022-11-25T11:56:36;100632.78;;;-3.09;100.00
25084;BME280;13075;55.682;37.564;2022-11-25T12:04:21;100641.69;;;-2.82;100.00
25084;BME280;13075;55.682;37.564;2022-11-25T12:09:50;100637.50;;;-3.00;100.00
25084;BME280;13075;55.682;37.564;2022-11-25T12:12:21;100645.72;;;-2.77;100.00
25084;BME280;13075;55.682;37.564;2022-11-25T12:14:55;100645.31;;;-2.85;100.00
25084;BME280;13075;55.682;37.564;2022-11-25T12:17:33;100640.34;;;-2.89;100.00
25084;BME280;13075;55.682;37.564;2022-11-25T12:20:37;100641.50;;;-2.79;100.00
25084;BME280;13075;55.682;37.564;2022-11-25T12:23:25;100639.63;;;-2.77;100.00
25084;BME280;13075;55.682;37.564;2022-11-25T12:26:00;100638.50;;;-2.73;100.00
25084;BME280;13075;55.682;37.564;2022-11-25T12:28:34;100641.53;;;-2.65;100.00
25084;BME280;13075;55.682;37.564;2022-11-25T12:31:15;100645.91;;;-2.66;100.00
25084;BME280;13075;55.682;37.564;2022-11-25T12:34:04;100651.97;;;-2.79;100.00
25084;BME280;13075;55.682;37.564;2022-11-25T12:36:36;100647.22;;;-2.73;100.00
25084;BME280;13075;55.682;37.564;2022-11-25T12:42:16;100648.75;;;-3.14;100.00
25084;BME280;13075;55.682;37.564;2022-11-25T12:47:29;100656.75;;;-3.17;100.00
25084;BME280;13075;55.682;37.564;2022-11-25T12:49:55;100661.91;;;-3.00;100.00
25084;BME280;13075;55.682;37.564;2022-11-25T12:55:14;100663.16;;;-3.07;100.00
25084;BME280;13075;55.682;37.564;2022-11-25T13:17:07;100681.75;;;-3.11;100.00
25084;BME280;13075;55.682;37.564;2022-11-25T13:19:34;100687.25;;;-3.16;100.00
25084;BME280;13075;55.682;37.564;2022-11-25T13:24:51;100696.09;;;-2.87;100.00
25084;BME280;13075;55.682;37.564;2022-11-25T13:27:31;100688.56;;;-2.93;100.00
25084;BME280;13075;55.682;37.564;2022-11-25T13:29:59;100695.34;;;-3.05;100.00
25084;BME280;13075;55.682;37.564;2022-11-25T13:32:36;100691.19;;;-3.09;100.00
25084;BME280;13075;55.682;37.564;2022-11-25T13:35:54;100697.69;;;-3.00;100.00
25084;BME280;13075;55.682;37.564;2022-11-25T13:40:59;100694.75;;;-2.94;100.00
25084;BME280;13075;55.682;37.564;2022-11-25T13:43:25;100707.59;;;-3.05;100.00
25084;BME280;13075;55.682;37.564;2022-11-25T13:45:51;100706.69;;;-3.20;100.00
25084;BME280;13075;55.682;37.564;2022-11-25T13:48:25;100714.69;;;-3.07;100.00
25084;BME280;13075;55.682;37.564;2022-11-25T13:51:21;100706.16;;;-3.11;100.00
25084;BME280;13075;55.682;37.564;2022-11-25T13:53:53;100699.56;;;-3.18;100.00
25084;BME280;13075;55.682;37.564;2022-11-25T14:01:35;100712.66;;;-3.02;100.00
25084;BME280;13075;55.682;37.564;2022-11-25T14:04:04;100703.25;;;-2.91;100.00
25084;BME280;13075;55.682;37.564;2022-11-25T14:07:16;100706.63;;;-3.04;100.00